sensor_id;sensor_type;location;lat;lon;timestamp;temperature;humidity
21189;DHT22;39071;52.420;20.896;2023-04-24T00:00:14;10.00;99.90
21189;DHT22;39071;52.420;20.896;2023-04-24T00:02:45;9.90;99.90
21189;DHT22;39071;52.420;20.896;2023-04-24T00:05:13;9.90;99.90
21189;DHT22;39071;52.420;20.896;2023-04-24T00:07:43;10.00;99.90
21189;DHT22;39071;52.420;20.896;2023-04-24T00:10:09;9.90;99.90
21189;DHT22;39071;52.420;20.896;2023-04-24T00:12:35;9.80;99.90
21189;DHT22;39071;52.420;20.896;2023-04-24T00:15:01;9.70;99.90
21189;DHT22;39071;52.420;20.896;2023-04-24T00:17:27;9.70;99.90
21189;DHT22;39071;52.420;20.896;2023-04-24T00:19:53;9.70;99.90
21189;DHT22;39071;52.420;20.896;2023-04-24T00:22:27;9.60;99.90
21189;DHT22;39071;52.420;20.896;2023-04-24T00:24:54;9.50;99.90
21189;DHT22;39071;52.420;20.896;2023-04-24T00:27:20;9.40;99.90
21189;DHT22;39071;52.420;20.896;2023-04-24T00:29:45;9.40;99.90
21189;DHT22;39071;52.420;20.896;2023-04-24T00:32:11;9.50;99.90
21189;DHT22;39071;52.420;20.896;2023-04-24T00:34:37;9.30;99.90
21189;DHT22;39071;52.420;20.896;2023-04-24T00:37:03;9.10;99.90
21189;DHT22;39071;52.420;20.896;2023-04-24T00:39:29;9.10;99.90
21189;DHT22;39071;52.420;20.896;2023-04-24T00:41:54;9.10;99.90
21189;DHT22;39071;52.420;20.896;2023-04-24T00:44:22;9.00;99.90
21189;DHT22;39071;52.420;20.896;2023-04-24T00:46:49;9.00;99.90
21189;DHT22;39071;52.420;20.896;2023-04-24T00:49:21;8.90;99.90
21189;DHT22;39071;52.420;20.896;2023-04-24T00:51:47;9.00;99.90
21189;DHT22;39071;52.420;20.896;2023-04-24T00:54:14;9.00;99.90
21189;DHT22;39071;52.420;20.896;2023-04-24T00:56:41;9.00;99.90
21189;DHT22;39071;52.420;20.896;2023-04-24T00:59:08;8.90;99.90
21189;DHT22;39071;52.420;20.896;2023-04-24T01:01:34;8.80;99.90
21189;DHT22;39071;52.420;20.896;2023-04-24T01:04:00;8.70;1.00
21189;DHT22;39071;52.420;20.896;2023-04-24T01:06:28;8.70;1.00
21189;DHT22;39071;52.420;20.896;2023-04-24T01:08:57;8.70;1.00
21189;DHT22;39071;52.420;20.896;2023-04-24T01:11:25;8.60;99.90
21189;DHT22;39071;52.420;20.896;2023-04-24T01:13:51;8.50;99.90
21189;DHT22;39071;52.420;20.896;2023-04-24T01:16:18;8.50;1.00
21189;DHT22;39071;52.420;20.896;2023-04-24T01:18:46;8.50;1.00
21189;DHT22;39071;52.420;20.896;2023-04-24T01:21:14;8.40;1.00
21189;DHT22;39071;52.420;20.896;2023-04-24T01:23:43;8.40;1.00
21189;DHT22;39071;52.420;20.896;2023-04-24T01:26:08;8.40;1.00
21189;DHT22;39071;52.420;20.896;2023-04-24T01:28:34;8.30;1.00
21189;DHT22;39071;52.420;20.896;2023-04-24T01:31:00;8.40;1.00
21189;DHT22;39071;52.420;20.896;2023-04-24T01:33:26;8.40;1.00
21189;DHT22;39071;52.420;20.896;2023-04-24T01:35:52;8.30;1.00
21189;DHT22;39071;52.420;20.896;2023-04-24T01:38:18;8.30;1.00
21189;DHT22;39071;52.420;20.896;2023-04-24T01:40:43;8.30;1.00
21189;DHT22;39071;52.420;20.896;2023-04-24T01:43:09;8.30;1.00
21189;DHT22;39071;52.420;20.896;2023-04-24T01:45:35;8.40;1.00
21189;DHT22;39071;52.420;20.896;2023-04-24T01:48:01;8.40;1.00
21189;DHT22;39071;52.420;20.896;2023-04-24T01:50:27;8.40;1.00
21189;DHT22;39071;52.420;20.896;2023-04-24T01:52:52;8.40;1.00
21189;DHT22;39071;52.420;20.896;2023-04-24T01:55:18;8.40;1.00
21189;DHT22;39071;52.420;20.896;2023-04-24T01:57:44;8.40;1.00
21189;DHT22;39071;52.420;20.896;2023-04-24T02:00:10;8.20;1.00
21189;DHT22;39071;52.420;20.896;2023-04-24T02:02:38;8.20;1.00
21189;DHT22;39071;52.420;20.896;2023-04-24T02:05:06;8.10;1.00
21189;DHT22;39071;52.420;20.896;2023-04-24T02:07:32;8.10;1.00
21189;DHT22;39071;52.420;20.896;2023-04-24T02:09:58;8.00;1.00
21189;DHT22;39071;52.420;20.896;2023-04-24T02:12:24;8.10;1.00
21189;DHT22;39071;52.420;20.896;2023-04-24T02:14:50;8.00;1.00
21189;DHT22;39071;52.420;20.896;2023-04-24T02:17:16;8.00;1.00
21189;DHT22;39071;52.420;20.896;2023-04-24T02:19:42;8.00;1.00
21189;DHT22;39071;52.420;20.896;2023-04-24T02:22:07;7.80;1.00
21189;DHT22;39071;52.420;20.896;2023-04-24T02:24:33;7.80;1.00
21189;DHT22;39071;52.420;20.896;2023-04-24T02:26:59;7.90;1.00
21189;DHT22;39071;52.420;20.896;2023-04-24T02:29:25;7.80;1.00
21189;DHT22;39071;52.420;20.896;2023-04-24T02:31:51;7.80;1.00
21189;DHT22;39071;52.420;20.896;2023-04-24T02:34:17;7.80;1.00
21189;DHT22;39071;52.420;20.896;2023-04-24T02:36:42;7.70;1.00
21189;DHT22;39071;52.420;20.896;2023-04-24T02:39:08;7.70;99.90
21189;DHT22;39071;52.420;20.896;2023-04-24T02:41:34;7.70;20.60
21189;DHT22;39071;52.420;20.896;2023-04-24T02:43:59;7.70;95.40
21189;DHT22;39071;52.420;20.896;2023-04-24T02:46:25;7.70;1.00
21189;DHT22;39071;52.420;20.896;2023-04-24T02:48:51;7.70;1.00
21189;DHT22;39071;52.420;20.896;2023-04-24T02:51:17;7.60;1.00
21189;DHT22;39071;52.420;20.896;2023-04-24T02:53:43;7.60;15.10
21189;DHT22;39071;52.420;20.896;2023-04-24T02:56:09;7.50;99.90
21189;DHT22;39071;52.420;20.896;2023-04-24T02:58:38;7.50;99.90
21189;DHT22;39071;52.420;20.896;2023-04-24T03:01:03;7.40;99.90
21189;DHT22;39071;52.420;20.896;2023-04-24T03:03:30;7.40;1.00
21189;DHT22;39071;52.420;20.896;2023-04-24T03:05:56;7.40;1.00
21189;DHT22;39071;52.420;20.896;2023-04-24T03:08:23;7.40;1.00
21189;DHT22;39071;52.420;20.896;2023-04-24T03:10:49;7.40;1.00
21189;DHT22;39071;52.420;20.896;2023-04-24T03:13:17;7.50;1.00
21189;DHT22;39071;52.420;20.896;2023-04-24T03:15:43;7.50;1.00
21189;DHT22;39071;52.420;20.896;2023-04-24T03:18:10;7.50;1.00
21189;DHT22;39071;52.420;20.896;2023-04-24T03:20:35;7.60;1.00
21189;DHT22;39071;52.420;20.896;2023-04-24T03:23:03;7.60;1.00
21189;DHT22;39071;52.420;20.896;2023-04-24T03:25:28;7.60;1.00
21189;DHT22;39071;52.420;20.896;2023-04-24T03:27:54;7.70;1.00
21189;DHT22;39071;52.420;20.896;2023-04-24T03:30:20;7.80;62.50
21189;DHT22;39071;52.420;20.896;2023-04-24T03:32:46;7.80;1.00
21189;DHT22;39071;52.420;20.896;2023-04-24T03:35:12;7.90;1.00
21189;DHT22;39071;52.420;20.896;2023-04-24T03:37:38;8.00;1.00
21189;DHT22;39071;52.420;20.896;2023-04-24T03:40:04;8.00;1.00
21189;DHT22;39071;52.420;20.896;2023-04-24T03:42:31;8.10;1.00
21189;DHT22;39071;52.420;20.896;2023-04-24T03:44:57;8.10;1.00
21189;DHT22;39071;52.420;20.896;2023-04-24T03:47:22;8.20;1.00
21189;DHT22;39071;52.420;20.896;2023-04-24T03:49:48;8.30;1.00
21189;DHT22;39071;52.420;20.896;2023-04-24T03:52:14;8.40;1.00
21189;DHT22;39071;52.420;20.896;2023-04-24T03:54:39;8.40;1.00
21189;DHT22;39071;52.420;20.896;2023-04-24T03:57:05;8.60;1.00
21189;DHT22;39071;52.420;20.896;2023-04-24T03:59:31;8.90;1.00
21189;DHT22;39071;52.420;20.896;2023-04-24T04:01:56;9.70;1.00
21189;DHT22;39071;52.420;20.896;2023-04-24T04:04:22;10.70;1.00
21189;DHT22;39071;52.420;20.896;2023-04-24T04:06:48;11.70;99.90
21189;DHT22;39071;52.420;20.896;2023-04-24T04:09:14;12.40;1.00
21189;DHT22;39071;52.420;20.896;2023-04-24T04:11:40;13.30;1.00
21189;DHT22;39071;52.420;20.896;2023-04-24T04:14:06;14.30;1.00
21189;DHT22;39071;52.420;20.896;2023-04-24T04:16:32;15.10;1.00
21189;DHT22;39071;52.420;20.896;2023-04-24T04:18:57;15.70;1.00
21189;DHT22;39071;52.420;20.896;2023-04-24T04:21:24;16.10;1.00
21189;DHT22;39071;52.420;20.896;2023-04-24T04:23:50;16.60;1.00
21189;DHT22;39071;52.420;20.896;2023-04-24T04:26:15;17.00;1.00
21189;DHT22;39071;52.420;20.896;2023-04-24T04:28:41;16.50;1.00
21189;DHT22;39071;52.420;20.896;2023-04-24T04:31:07;15.50;1.00
21189;DHT22;39071;52.420;20.896;2023-04-24T04:33:36;14.70;1.00
21189;DHT22;39071;52.420;20.896;2023-04-24T04:36:03;14.10;1.00
21189;DHT22;39071;52.420;20.896;2023-04-24T04:38:29;13.60;1.00
21189;DHT22;39071;52.420;20.896;2023-04-24T04:40:55;14.00;1.00
21189;DHT22;39071;52.420;20.896;2023-04-24T04:43:24;15.00;1.00
21189;DHT22;39071;52.420;20.896;2023-04-24T04:45:51;14.80;1.00
21189;DHT22;39071;52.420;20.896;2023-04-24T04:48:18;14.70;1.00
21189;DHT22;39071;52.420;20.896;2023-04-24T04:50:44;15.50;1.00
21189;DHT22;39071;52.420;20.896;2023-04-24T04:53:10;16.00;1.00
21189;DHT22;39071;52.420;20.896;2023-04-24T04:55:36;15.80;1.00
21189;DHT22;39071;52.420;20.896;2023-04-24T04:58:02;15.80;1.00
21189;DHT22;39071;52.420;20.896;2023-04-24T05:00:28;17.10;1.00
21189;DHT22;39071;52.420;20.896;2023-04-24T05:03:00;18.40;1.00
21189;DHT22;39071;52.420;20.896;2023-04-24T05:05:25;19.80;1.00
21189;DHT22;39071;52.420;20.896;2023-04-24T05:07:51;20.70;1.00
21189;DHT22;39071;52.420;20.896;2023-04-24T05:10:17;21.60;1.00
21189;DHT22;39071;52.420;20.896;2023-04-24T05:12:43;22.20;1.00
21189;DHT22;39071;52.420;20.896;2023-04-24T05:15:09;22.80;1.00
21189;DHT22;39071;52.420;20.896;2023-04-24T05:17:35;23.20;1.00
21189;DHT22;39071;52.420;20.896;2023-04-24T05:20:01;23.50;1.00
21189;DHT22;39071;52.420;20.896;2023-04-24T05:22:27;23.90;1.00
21189;DHT22;39071;52.420;20.896;2023-04-24T05:24:53;24.10;1.00
21189;DHT22;39071;52.420;20.896;2023-04-24T05:27:19;24.10;1.00
21189;DHT22;39071;52.420;20.896;2023-04-24T05:29:44;24.10;1.00
21189;DHT22;39071;52.420;20.896;2023-04-24T05:32:10;24.20;1.00
21189;DHT22;39071;52.420;20.896;2023-04-24T05:34:36;24.30;1.00
21189;DHT22;39071;52.420;20.896;2023-04-24T05:37:02;24.10;1.00
21189;DHT22;39071;52.420;20.896;2023-04-24T05:39:28;23.70;1.00
21189;DHT22;39071;52.420;20.896;2023-04-24T05:41:54;23.00;1.00
21189;DHT22;39071;52.420;20.896;2023-04-24T05:44:23;22.70;1.00
21189;DHT22;39071;52.420;20.896;2023-04-24T05:46:49;22.40;1.00
21189;DHT22;39071;52.420;20.896;2023-04-24T05:49:14;22.20;1.00
21189;DHT22;39071;52.420;20.896;2023-04-24T05:51:41;21.60;1.00
21189;DHT22;39071;52.420;20.896;2023-04-24T05:54:07;21.30;1.00
21189;DHT22;39071;52.420;20.896;2023-04-24T05:56:33;20.90;1.00
21189;DHT22;39071;52.420;20.896;2023-04-24T05:58:58;20.70;1.00
21189;DHT22;39071;52.420;20.896;2023-04-24T06:01:24;20.20;1.00
21189;DHT22;39071;52.420;20.896;2023-04-24T06:03:50;20.10;1.00
21189;DHT22;39071;52.420;20.896;2023-04-24T06:06:16;20.00;1.00
21189;DHT22;39071;52.420;20.896;2023-04-24T06:08:42;19.70;1.00
21189;DHT22;39071;52.420;20.896;2023-04-24T06:11:09;19.50;1.00
21189;DHT22;39071;52.420;20.896;2023-04-24T06:13:35;19.40;1.00
21189;DHT22;39071;52.420;20.896;2023-04-24T06:16:01;19.20;1.00
21189;DHT22;39071;52.420;20.896;2023-04-24T06:18:28;19.00;1.00
21189;DHT22;39071;52.420;20.896;2023-04-24T06:20:53;18.90;1.00
21189;DHT22;39071;52.420;20.896;2023-04-24T06:23:20;18.90;1.00
21189;DHT22;39071;52.420;20.896;2023-04-24T06:25:46;19.00;1.00
21189;DHT22;39071;52.420;20.896;2023-04-24T06:28:12;19.30;1.00
21189;DHT22;39071;52.420;20.896;2023-04-24T06:30:38;20.70;1.00
21189;DHT22;39071;52.420;20.896;2023-04-24T06:33:03;22.20;1.00
21189;DHT22;39071;52.420;20.896;2023-04-24T06:35:29;22.30;1.00
21189;DHT22;39071;52.420;20.896;2023-04-24T06:37:55;23.70;1.00
21189;DHT22;39071;52.420;20.896;2023-04-24T06:40:22;24.90;1.00
21189;DHT22;39071;52.420;20.896;2023-04-24T06:42:47;24.80;1.00
21189;DHT22;39071;52.420;20.896;2023-04-24T06:45:13;25.80;1.00
21189;DHT22;39071;52.420;20.896;2023-04-24T06:47:39;26.00;1.00
21189;DHT22;39071;52.420;20.896;2023-04-24T06:50:05;26.00;1.00
21189;DHT22;39071;52.420;20.896;2023-04-24T06:52:31;26.20;1.00
21189;DHT22;39071;52.420;20.896;2023-04-24T06:55:04;25.60;1.00
21189;DHT22;39071;52.420;20.896;2023-04-24T06:57:32;25.50;1.00
21189;DHT22;39071;52.420;20.896;2023-04-24T06:59:57;25.00;1.00
21189;DHT22;39071;52.420;20.896;2023-04-24T07:02:24;25.60;1.00
21189;DHT22;39071;52.420;20.896;2023-04-24T07:04:50;25.80;1.00
21189;DHT22;39071;52.420;20.896;2023-04-24T07:07:15;26.30;1.00
21189;DHT22;39071;52.420;20.896;2023-04-24T07:09:42;27.10;1.00
21189;DHT22;39071;52.420;20.896;2023-04-24T07:12:08;27.30;1.00
21189;DHT22;39071;52.420;20.896;2023-04-24T07:14:36;28.10;1.00
21189;DHT22;39071;52.420;20.896;2023-04-24T07:17:03;28.30;1.00
21189;DHT22;39071;52.420;20.896;2023-04-24T07:19:29;28.80;1.00
21189;DHT22;39071;52.420;20.896;2023-04-24T07:21:55;29.20;1.00
21189;DHT22;39071;52.420;20.896;2023-04-24T07:24:21;29.60;1.00
21189;DHT22;39071;52.420;20.896;2023-04-24T07:26:46;31.00;1.00
21189;DHT22;39071;52.420;20.896;2023-04-24T07:29:13;31.20;1.00
21189;DHT22;39071;52.420;20.896;2023-04-24T07:31:39;29.90;1.00
21189;DHT22;39071;52.420;20.896;2023-04-24T07:34:06;29.70;1.00
21189;DHT22;39071;52.420;20.896;2023-04-24T07:36:32;29.20;1.00
21189;DHT22;39071;52.420;20.896;2023-04-24T07:38:58;30.00;1.00
21189;DHT22;39071;52.420;20.896;2023-04-24T07:41:24;31.20;1.00
21189;DHT22;39071;52.420;20.896;2023-04-24T07:43:49;29.90;1.00
21189;DHT22;39071;52.420;20.896;2023-04-24T07:46:16;30.50;1.00
21189;DHT22;39071;52.420;20.896;2023-04-24T07:48:41;30.70;1.00
21189;DHT22;39071;52.420;20.896;2023-04-24T07:51:07;30.20;1.00
21189;DHT22;39071;52.420;20.896;2023-04-24T07:53:35;30.50;1.00
21189;DHT22;39071;52.420;20.896;2023-04-24T07:56:01;30.10;1.00
21189;DHT22;39071;52.420;20.896;2023-04-24T07:58:27;28.60;1.00
21189;DHT22;39071;52.420;20.896;2023-04-24T08:00:52;28.50;1.00
21189;DHT22;39071;52.420;20.896;2023-04-24T08:03:18;27.80;1.00
21189;DHT22;39071;52.420;20.896;2023-04-24T08:05:45;27.70;1.00
21189;DHT22;39071;52.420;20.896;2023-04-24T08:08:11;26.60;1.00
21189;DHT22;39071;52.420;20.896;2023-04-24T08:10:37;26.20;1.00
21189;DHT22;39071;52.420;20.896;2023-04-24T08:13:03;26.50;1.00
21189;DHT22;39071;52.420;20.896;2023-04-24T08:15:29;27.20;1.00
21189;DHT22;39071;52.420;20.896;2023-04-24T08:17:54;27.30;1.00
21189;DHT22;39071;52.420;20.896;2023-04-24T08:20:20;27.50;1.00
21189;DHT22;39071;52.420;20.896;2023-04-24T08:22:46;27.10;1.00
21189;DHT22;39071;52.420;20.896;2023-04-24T08:25:15;26.70;1.00
21189;DHT22;39071;52.420;20.896;2023-04-24T08:27:41;27.10;1.00
21189;DHT22;39071;52.420;20.896;2023-04-24T08:30:07;26.00;1.00
21189;DHT22;39071;52.420;20.896;2023-04-24T08:32:33;25.50;1.00
21189;DHT22;39071;52.420;20.896;2023-04-24T08:34:59;24.90;1.00
21189;DHT22;39071;52.420;20.896;2023-04-24T08:37:26;26.50;1.00
21189;DHT22;39071;52.420;20.896;2023-04-24T08:39:52;27.20;1.00
21189;DHT22;39071;52.420;20.896;2023-04-24T08:42:19;28.00;1.00
21189;DHT22;39071;52.420;20.896;2023-04-24T08:44:47;28.60;1.00
21189;DHT22;39071;52.420;20.896;2023-04-24T08:47:15;28.10;1.00
21189;DHT22;39071;52.420;20.896;2023-04-24T08:49:41;27.80;1.00
21189;DHT22;39071;52.420;20.896;2023-04-24T08:52:07;28.40;1.00
21189;DHT22;39071;52.420;20.896;2023-04-24T08:54:36;28.40;1.00
21189;DHT22;39071;52.420;20.896;2023-04-24T08:57:02;27.40;1.00
21189;DHT22;39071;52.420;20.896;2023-04-24T08:59:30;27.00;1.00
21189;DHT22;39071;52.420;20.896;2023-04-24T09:01:57;26.60;1.00
21189;DHT22;39071;52.420;20.896;2023-04-24T09:04:24;25.60;1.00
21189;DHT22;39071;52.420;20.896;2023-04-24T09:06:52;24.40;1.00
21189;DHT22;39071;52.420;20.896;2023-04-24T09:09:21;23.80;1.00
21189;DHT22;39071;52.420;20.896;2023-04-24T09:11:49;24.00;1.00
21189;DHT22;39071;52.420;20.896;2023-04-24T09:14:16;24.20;1.00
21189;DHT22;39071;52.420;20.896;2023-04-24T09:16:42;24.00;1.00
21189;DHT22;39071;52.420;20.896;2023-04-24T09:19:08;23.60;1.00
21189;DHT22;39071;52.420;20.896;2023-04-24T09:21:35;23.60;1.00
21189;DHT22;39071;52.420;20.896;2023-04-24T09:24:03;23.70;1.00
21189;DHT22;39071;52.420;20.896;2023-04-24T09:26:35;23.70;1.00
21189;DHT22;39071;52.420;20.896;2023-04-24T09:29:03;23.80;1.00
21189;DHT22;39071;52.420;20.896;2023-04-24T09:31:30;23.70;1.00
21189;DHT22;39071;52.420;20.896;2023-04-24T09:34:04;24.10;1.00
21189;DHT22;39071;52.420;20.896;2023-04-24T09:36:34;24.00;1.00
21189;DHT22;39071;52.420;20.896;2023-04-24T09:39:04;24.00;1.00
21189;DHT22;39071;52.420;20.896;2023-04-24T09:41:32;25.10;1.00
21189;DHT22;39071;52.420;20.896;2023-04-24T09:44:11;25.50;1.00
21189;DHT22;39071;52.420;20.896;2023-04-24T09:46:38;25.70;1.00
21189;DHT22;39071;52.420;20.896;2023-04-24T09:49:13;25.30;1.00
21189;DHT22;39071;52.420;20.896;2023-04-24T09:51:39;24.80;1.00
21189;DHT22;39071;52.420;20.896;2023-04-24T09:54:17;24.50;1.00
21189;DHT22;39071;52.420;20.896;2023-04-24T09:56:49;24.00;1.00
21189;DHT22;39071;52.420;20.896;2023-04-24T09:59:19;23.80;1.00
21189;DHT22;39071;52.420;20.896;2023-04-24T10:01:45;23.70;1.00
21189;DHT22;39071;52.420;20.896;2023-04-24T10:04:18;24.00;1.00
21189;DHT22;39071;52.420;20.896;2023-04-24T10:06:45;24.40;1.00
21189;DHT22;39071;52.420;20.896;2023-04-24T10:09:11;24.50;1.00
21189;DHT22;39071;52.420;20.896;2023-04-24T10:11:42;24.40;1.00
21189;DHT22;39071;52.420;20.896;2023-04-24T10:14:10;24.50;1.00
21189;DHT22;39071;52.420;20.896;2023-04-24T10:16:39;25.20;1.00
21189;DHT22;39071;52.420;20.896;2023-04-24T10:19:04;25.70;1.00
21189;DHT22;39071;52.420;20.896;2023-04-24T10:21:31;26.20;1.00
21189;DHT22;39071;52.420;20.896;2023-04-24T10:23:58;26.10;1.00
21189;DHT22;39071;52.420;20.896;2023-04-24T10:26:26;25.90;1.00
21189;DHT22;39071;52.420;20.896;2023-04-24T10:28:54;26.40;1.00
21189;DHT22;39071;52.420;20.896;2023-04-24T10:31:22;26.60;1.00
21189;DHT22;39071;52.420;20.896;2023-04-24T10:33:50;26.60;1.00
21189;DHT22;39071;52.420;20.896;2023-04-24T10:36:17;26.90;1.00
21189;DHT22;39071;52.420;20.896;2023-04-24T10:38:45;27.40;1.00
21189;DHT22;39071;52.420;20.896;2023-04-24T10:41:12;27.60;1.00
21189;DHT22;39071;52.420;20.896;2023-04-24T10:44:06;27.70;1.00
21189;DHT22;39071;52.420;20.896;2023-04-24T10:46:32;28.00;1.00
21189;DHT22;39071;52.420;20.896;2023-04-24T10:48:58;28.10;1.00
21189;DHT22;39071;52.420;20.896;2023-04-24T10:51:45;27.90;1.00
21189;DHT22;39071;52.420;20.896;2023-04-24T10:59:44;26.80;1.00
21189;DHT22;39071;52.420;20.896;2023-04-24T11:02:09;26.40;1.00
21189;DHT22;39071;52.420;20.896;2023-04-24T11:04:35;26.70;1.00
21189;DHT22;39071;52.420;20.896;2023-04-24T11:07:03;27.00;1.00
21189;DHT22;39071;52.420;20.896;2023-04-24T11:09:32;26.90;1.00
21189;DHT22;39071;52.420;20.896;2023-04-24T11:12:10;27.60;1.00
21189;DHT22;39071;52.420;20.896;2023-04-24T11:17:47;27.30;1.00
21189;DHT22;39071;52.420;20.896;2023-04-24T11:20:18;27.90;1.00
21189;DHT22;39071;52.420;20.896;2023-04-24T11:22:44;27.90;1.00
21189;DHT22;39071;52.420;20.896;2023-04-24T11:25:09;27.50;1.00
21189;DHT22;39071;52.420;20.896;2023-04-24T11:27:44;27.60;1.00
21189;DHT22;39071;52.420;20.896;2023-04-24T11:30:11;27.80;1.00
21189;DHT22;39071;52.420;20.896;2023-04-24T11:32:40;27.80;1.00
21189;DHT22;39071;52.420;20.896;2023-04-24T11:35:15;27.50;1.00
21189;DHT22;39071;52.420;20.896;2023-04-24T11:37:52;27.40;1.00
21189;DHT22;39071;52.420;20.896;2023-04-24T11:40:20;27.50;1.00
21189;DHT22;39071;52.420;20.896;2023-04-24T11:42:49;26.60;1.00
21189;DHT22;39071;52.420;20.896;2023-04-24T11:45:24;26.30;1.00
21189;DHT22;39071;52.420;20.896;2023-04-24T11:47:50;26.00;1.00
21189;DHT22;39071;52.420;20.896;2023-04-24T11:50:18;26.20;1.00
21189;DHT22;39071;52.420;20.896;2023-04-24T11:52:46;26.00;1.00
21189;DHT22;39071;52.420;20.896;2023-04-24T11:57:59;25.80;1.00
21189;DHT22;39071;52.420;20.896;2023-04-24T12:03:02;25.70;1.00
21189;DHT22;39071;52.420;20.896;2023-04-24T12:05:28;25.30;1.00
21189;DHT22;39071;52.420;20.896;2023-04-24T12:07:56;25.00;1.00
21189;DHT22;39071;52.420;20.896;2023-04-24T12:10:28;24.90;1.00
21189;DHT22;39071;52.420;20.896;2023-04-24T12:12:56;25.00;1.00
21189;DHT22;39071;52.420;20.896;2023-04-24T12:15:22;25.00;1.00
21189;DHT22;39071;52.420;20.896;2023-04-24T12:17:50;24.70;1.00
21189;DHT22;39071;52.420;20.896;2023-04-24T12:20:17;24.60;1.00
21189;DHT22;39071;52.420;20.896;2023-04-24T12:22:50;24.50;1.00
21189;DHT22;39071;52.420;20.896;2023-04-24T12:25:19;24.60;1.00
21189;DHT22;39071;52.420;20.896;2023-04-24T12:27:52;24.70;1.00
21189;DHT22;39071;52.420;20.896;2023-04-24T12:30:18;24.60;1.00
21189;DHT22;39071;52.420;20.896;2023-04-24T12:32:48;24.60;1.00
21189;DHT22;39071;52.420;20.896;2023-04-24T12:35:23;24.60;1.00
21189;DHT22;39071;52.420;20.896;2023-04-24T12:37:49;24.60;1.00
21189;DHT22;39071;52.420;20.896;2023-04-24T12:40:17;24.70;1.00
21189;DHT22;39071;52.420;20.896;2023-04-24T12:42:48;24.70;1.00
21189;DHT22;39071;52.420;20.896;2023-04-24T12:45:15;24.70;1.00
21189;DHT22;39071;52.420;20.896;2023-04-24T12:47:42;24.60;1.00
21189;DHT22;39071;52.420;20.896;2023-04-24T12:50:10;24.70;1.00
21189;DHT22;39071;52.420;20.896;2023-04-24T12:52:36;24.70;1.00
21189;DHT22;39071;52.420;20.896;2023-04-24T12:55:02;24.80;1.00
21189;DHT22;39071;52.420;20.896;2023-04-24T12:57:29;24.90;1.00
21189;DHT22;39071;52.420;20.896;2023-04-24T13:00:08;24.80;1.00
21189;DHT22;39071;52.420;20.896;2023-04-24T13:02:34;24.60;1.00
21189;DHT22;39071;52.420;20.896;2023-04-24T13:05:01;24.30;1.00
21189;DHT22;39071;52.420;20.896;2023-04-24T13:07:27;24.30;1.00
21189;DHT22;39071;52.420;20.896;2023-04-24T13:09:54;24.20;1.00
21189;DHT22;39071;52.420;20.896;2023-04-24T13:12:20;24.10;1.00
21189;DHT22;39071;52.420;20.896;2023-04-24T13:14:46;24.10;1.00
21189;DHT22;39071;52.420;20.896;2023-04-24T13:17:12;24.00;1.00
21189;DHT22;39071;52.420;20.896;2023-04-24T13:19:43;23.50;1.00
21189;DHT22;39071;52.420;20.896;2023-04-24T13:22:10;23.10;1.00
21189;DHT22;39071;52.420;20.896;2023-04-24T13:24:37;22.70;1.00
21189;DHT22;39071;52.420;20.896;2023-04-24T13:27:03;22.60;1.00
21189;DHT22;39071;52.420;20.896;2023-04-24T13:29:29;22.40;1.00
21189;DHT22;39071;52.420;20.896;2023-04-24T13:31:55;22.20;1.00
21189;DHT22;39071;52.420;20.896;2023-04-24T13:34:25;21.70;1.00
21189;DHT22;39071;52.420;20.896;2023-04-24T13:36:55;21.40;1.00
21189;DHT22;39071;52.420;20.896;2023-04-24T13:39:23;21.20;1.00
21189;DHT22;39071;52.420;20.896;2023-04-24T13:41:49;21.00;1.00
21189;DHT22;39071;52.420;20.896;2023-04-24T13:44:16;20.80;1.00
21189;DHT22;39071;52.420;20.896;2023-04-24T13:46:43;20.80;1.00
21189;DHT22;39071;52.420;20.896;2023-04-24T13:49:11;20.90;1.00
21189;DHT22;39071;52.420;20.896;2023-04-24T13:51:37;20.80;1.00
21189;DHT22;39071;52.420;20.896;2023-04-24T13:54:03;20.60;1.00
21189;DHT22;39071;52.420;20.896;2023-04-24T13:56:28;20.70;1.00
21189;DHT22;39071;52.420;20.896;2023-04-24T13:58:54;20.70;1.00
21189;DHT22;39071;52.420;20.896;2023-04-24T14:01:20;21.00;1.00
21189;DHT22;39071;52.420;20.896;2023-04-24T14:03:50;21.20;1.00
21189;DHT22;39071;52.420;20.896;2023-04-24T14:06:18;21.30;1.00
21189;DHT22;39071;52.420;20.896;2023-04-24T14:08:43;21.50;1.00
21189;DHT22;39071;52.420;20.896;2023-04-24T14:11:09;21.70;1.00
21189;DHT22;39071;52.420;20.896;2023-04-24T14:13:36;21.90;1.00
21189;DHT22;39071;52.420;20.896;2023-04-24T14:16:03;22.10;1.00
21189;DHT22;39071;52.420;20.896;2023-04-24T14:18:29;22.20;1.00
21189;DHT22;39071;52.420;20.896;2023-04-24T14:20:55;22.20;1.00
21189;DHT22;39071;52.420;20.896;2023-04-24T14:23:21;22.20;1.00
21189;DHT22;39071;52.420;20.896;2023-04-24T14:25:46;22.10;1.00
21189;DHT22;39071;52.420;20.896;2023-04-24T14:28:17;22.00;1.00
21189;DHT22;39071;52.420;20.896;2023-04-24T14:30:43;22.00;1.00
21189;DHT22;39071;52.420;20.896;2023-04-24T14:33:09;21.60;1.00
21189;DHT22;39071;52.420;20.896;2023-04-24T14:35:35;21.70;1.00
21189;DHT22;39071;52.420;20.896;2023-04-24T14:38:01;21.70;1.00
21189;DHT22;39071;52.420;20.896;2023-04-24T14:40:27;21.70;1.00
21189;DHT22;39071;52.420;20.896;2023-04-24T14:42:53;21.70;1.00
21189;DHT22;39071;52.420;20.896;2023-04-24T14:45:19;21.60;1.00
21189;DHT22;39071;52.420;20.896;2023-04-24T14:47:45;21.20;1.00
21189;DHT22;39071;52.420;20.896;2023-04-24T14:50:11;21.00;1.00
21189;DHT22;39071;52.420;20.896;2023-04-24T14:52:38;20.80;1.00
21189;DHT22;39071;52.420;20.896;2023-04-24T14:55:07;20.80;1.00
21189;DHT22;39071;52.420;20.896;2023-04-24T14:57:34;20.90;1.00
21189;DHT22;39071;52.420;20.896;2023-04-24T15:00:00;20.90;1.00
21189;DHT22;39071;52.420;20.896;2023-04-24T15:02:25;21.00;1.00
21189;DHT22;39071;52.420;20.896;2023-04-24T15:04:51;21.00;1.00
21189;DHT22;39071;52.420;20.896;2023-04-24T15:07:17;21.00;1.00
21189;DHT22;39071;52.420;20.896;2023-04-24T15:09:43;21.10;1.00
21189;DHT22;39071;52.420;20.896;2023-04-24T15:12:12;21.30;1.00
21189;DHT22;39071;52.420;20.896;2023-04-24T15:14:38;21.30;1.00
21189;DHT22;39071;52.420;20.896;2023-04-24T15:17:04;21.50;1.00
21189;DHT22;39071;52.420;20.896;2023-04-24T15:19:30;21.60;1.00
21189;DHT22;39071;52.420;20.896;2023-04-24T15:21:56;21.70;1.00
21189;DHT22;39071;52.420;20.896;2023-04-24T15:24:22;21.70;1.00
21189;DHT22;39071;52.420;20.896;2023-04-24T15:26:47;21.60;1.00
21189;DHT22;39071;52.420;20.896;2023-04-24T15:29:13;21.50;1.00
21189;DHT22;39071;52.420;20.896;2023-04-24T15:31:39;21.50;1.00
21189;DHT22;39071;52.420;20.896;2023-04-24T15:34:06;21.40;1.00
21189;DHT22;39071;52.420;20.896;2023-04-24T15:36:31;21.30;1.00
21189;DHT22;39071;52.420;20.896;2023-04-24T15:38:57;21.20;1.00
21189;DHT22;39071;52.420;20.896;2023-04-24T15:41:23;21.10;1.00
21189;DHT22;39071;52.420;20.896;2023-04-24T15:43:49;20.90;1.00